Terminal Aerodrome Forecast
Issued by NWS

Home | Current Version | Previous Version | Text Only | Print | Product List | Glossary On
Versions: 1 2 3 4 5 6 7 8 9 10 11 12 13 14 15 16 17
000
FTUS43 KDMX 170424 AAB
TAFOTM
TAF AMD
KOTM 170424Z 1704/1724 17017KT P6SM BKN100
     FM170500 27014KT P6SM BKN070
     FM170700 31015G21KT P6SM SCT010 BKN015
     FM171500 32013G19KT P6SM FEW021 SCT250=

USA.gov is the U.S. government's official web portal to all federal, state and local government web resources and services.